createdAt,value
2024-03-16T00:00:10.888Z,96270.94
2024-03-16T00:02:38.713Z,96272.78
2024-03-16T00:05:07.250Z,96270.34
2024-03-16T00:07:35.041Z,96279.38
2024-03-16T00:10:03.223Z,96281.22
2024-03-16T00:12:31.816Z,96283.03
2024-03-16T00:14:59.682Z,96293.69
2024-03-16T00:17:27.426Z,96327.66
2024-03-16T00:19:56.220Z,96314.59
2024-03-16T00:22:24.059Z,96314.81
2024-03-16T00:24:51.870Z,96298.09
2024-03-16T00:27:20.179Z,96286.66
2024-03-16T00:29:48.602Z,96284.78
2024-03-16T00:32:16.410Z,96281.56
2024-03-16T00:34:44.175Z,96285.81
2024-03-16T00:37:11.956Z,96286.28
2024-03-16T00:39:39.858Z,96282.25
2024-03-16T00:42:10.821Z,96273.47
2024-03-16T00:44:38.739Z,96273.69
2024-03-16T00:47:06.704Z,96279.22
2024-03-16T00:49:35.894Z,96273.13
2024-03-16T00:52:03.727Z,96268.59
2024-03-16T00:54:31.515Z,96255.56
2024-03-16T00:56:59.274Z,96260.88
2024-03-16T00:59:29.281Z,96261.09
2024-03-16T01:01:57.063Z,96251.53
2024-03-16T01:04:25.552Z,96247.03
2024-03-16T01:06:53.653Z,96249.91
2024-03-16T01:09:21.486Z,96255.22
2024-03-16T01:11:49.239Z,96252.78
2024-03-16T01:14:17.926Z,96254.66
2024-03-16T01:16:45.777Z,96257.53
2024-03-16T01:19:13.750Z,96272.41
2024-03-16T01:21:41.556Z,96271.84
2024-03-16T01:24:09.285Z,96265.72
2024-03-16T01:26:37.051Z,96259.84
2024-03-16T01:29:05.311Z,96251.06
2024-03-16T01:31:33.856Z,96252.13
2024-03-16T01:34:01.674Z,96253.94
2024-03-16T01:36:29.568Z,96255.81
2024-03-16T01:38:57.337Z,96263.75
2024-03-16T01:41:25.076Z,96255.19
2024-03-16T01:43:52.815Z,96262.97
2024-03-16T01:46:19.679Z,96248.81
2024-03-16T01:48:53.011Z,96249.88
2024-03-16T01:51:20.770Z,96241.31
2024-03-16T01:53:49.230Z,96241.31
2024-03-16T01:56:17.245Z,96243.19
2024-03-16T01:58:46.556Z,96245.25
2024-03-16T02:01:14.578Z,96247.91
2024-03-16T02:03:44.143Z,96248.94
2024-03-16T02:06:11.931Z,96243.06
2024-03-16T02:08:39.118Z,96236.94
2024-03-16T02:11:06.940Z,96241.44
2024-03-16T02:13:34.764Z,96237.97
2024-03-16T02:16:03.090Z,96250.44
2024-03-16T02:18:30.971Z,96237.38
2024-03-16T02:20:58.705Z,96233.94
2024-03-16T02:23:26.472Z,96237.38
2024-03-16T02:25:54.282Z,96242.69
2024-03-16T02:28:22.019Z,96250.09
2024-03-16T02:30:49.846Z,96245.56
2024-03-16T02:33:17.714Z,96241.31
2024-03-16T02:35:45.694Z,96252.97
2024-03-16T02:38:13.447Z,96266.47
2024-03-16T02:40:43.450Z,96258.50
2024-03-16T02:43:11.560Z,96256.09
2024-03-16T02:45:39.377Z,96254.47
2024-03-16T02:48:07.592Z,96257.38
2024-03-16T02:50:35.384Z,96252.28
2024-03-16T02:53:03.239Z,96248.81
2024-03-16T02:55:31.873Z,96252.28
2024-03-16T02:57:59.790Z,96255.16
2024-03-16T03:00:28.229Z,96248.00
2024-03-16T03:02:56.129Z,96250.66
2024-03-16T03:05:24.892Z,96251.69
2024-03-16T03:07:53.930Z,96257.22
2024-03-16T03:10:22.871Z,96255.41
2024-03-16T03:12:50.764Z,96262.53
2024-03-16T03:15:19.526Z,96270.50
2024-03-16T03:17:47.282Z,96270.72
2024-03-16T03:20:15.305Z,96274.44
2024-03-16T03:22:43.070Z,96259.53
2024-03-16T03:25:12.116Z,96270.38
2024-03-16T03:27:40.270Z,96268.53
2024-03-16T03:30:08.557Z,96262.41
2024-03-16T03:32:36.406Z,96271.16
2024-03-16T03:35:04.503Z,96263.44
2024-03-16T03:37:32.369Z,96271.41
2024-03-16T03:40:00.542Z,96276.13
2024-03-16T03:42:30.828Z,96281.44
2024-03-16T03:45:12.301Z,96284.31
2024-03-16T03:47:51.416Z,96281.66
2024-03-16T03:50:27.600Z,96279.03
2024-03-16T03:52:56.311Z,96291.72
2024-03-16T03:55:27.307Z,96293.53
2024-03-16T03:57:56.091Z,96292.75
2024-03-16T04:00:24.128Z,96277.03
2024-03-16T04:02:51.921Z,96292.16
2024-03-16T04:05:19.778Z,96276.25
2024-03-16T04:07:47.546Z,96291.34
2024-03-16T04:10:15.420Z,96285.22
2024-03-16T04:12:43.322Z,96289.75
2024-03-16T04:15:11.179Z,96287.09
2024-03-16T04:17:39.057Z,96285.44
2024-03-16T04:20:10.888Z,96286.50
2024-03-16T04:22:38.788Z,96296.28
2024-03-16T04:25:08.791Z,96301.59
2024-03-16T04:27:36.699Z,96305.31
2024-03-16T04:30:05.095Z,96313.28
2024-03-16T04:32:32.955Z,96306.34
2024-03-16T04:35:00.828Z,96304.47
2024-03-16T04:37:28.679Z,96306.56
2024-03-16T04:39:57.240Z,96311.88
2024-03-16T04:42:25.159Z,96312.66
2024-03-16T04:44:53.002Z,96312.66
2024-03-16T04:47:20.774Z,96313.72
2024-03-16T04:49:48.556Z,96306.78
2024-03-16T04:52:16.851Z,96306.00
2024-03-16T04:54:44.750Z,96314.16
2024-03-16T04:57:13.434Z,96316.00
2024-03-16T04:59:41.481Z,96316.00
2024-03-16T05:02:09.373Z,96310.91
2024-03-16T05:04:37.400Z,96311.75
2024-03-16T05:07:05.269Z,96320.72
2024-03-16T05:09:33.321Z,96311.97
2024-03-16T05:12:01.541Z,96314.00
2024-03-16T05:14:29.723Z,96314.22
2024-03-16T05:16:57.472Z,96324.84
2024-03-16T05:19:26.600Z,96331.78
2024-03-16T05:21:54.481Z,96335.47
2024-03-16T05:24:22.554Z,96332.00
2024-03-16T05:26:50.393Z,96338.34
2024-03-16T05:29:18.184Z,96337.53
2024-03-16T05:31:46.416Z,96338.34
2024-03-16T05:34:14.959Z,96333.25
2024-03-16T05:36:43.253Z,96334.09
2024-03-16T05:39:11.238Z,96331.66
2024-03-16T05:41:39.740Z,96345.94
2024-03-16T05:44:07.565Z,96345.94
2024-03-16T05:46:35.327Z,96350.44
2024-03-16T05:49:03.215Z,96346.97
2024-03-16T05:51:31.458Z,96350.44
2024-03-16T05:54:00.698Z,96355.75
2024-03-16T05:56:28.556Z,96351.47
2024-03-16T05:58:56.924Z,96355.75
2024-03-16T06:01:26.159Z,96367.16
2024-03-16T06:03:54.190Z,96374.31
2024-03-16T06:06:22.391Z,96373.50
2024-03-16T06:08:50.169Z,96374.31
2024-03-16T06:11:18.023Z,96373.28
2024-03-16T06:13:46.396Z,96374.91
2024-03-16T06:16:14.581Z,96382.06
2024-03-16T06:18:48.224Z,96380.22
2024-03-16T06:21:16.167Z,96379.97
2024-03-16T06:23:43.969Z,96390.38
2024-03-16T06:26:18.118Z,96397.53
2024-03-16T06:28:48.443Z,96406.28
2024-03-16T06:31:19.670Z,96409.53
2024-03-16T06:33:49.592Z,96411.38
2024-03-16T06:36:17.437Z,96421.56
2024-03-16T06:38:45.202Z,96417.88
2024-03-16T06:41:12.987Z,96416.59
2024-03-16T06:43:40.747Z,96420.00
2024-03-16T06:46:10.046Z,96424.41
2024-03-16T06:48:37.968Z,96418.44
2024-03-16T06:51:06.049Z,96429.63
2024-03-16T06:53:33.881Z,96432.50
2024-03-16T06:56:02.497Z,96437.81
2024-03-16T06:58:32.108Z,96442.09
2024-03-16T07:01:00.775Z,96432.88
2024-03-16T07:03:28.686Z,96455.16
2024-03-16T07:05:56.496Z,96452.09
2024-03-16T07:08:24.420Z,96456.25
2024-03-16T07:10:52.461Z,96467.09
2024-03-16T07:13:20.216Z,96461.41
2024-03-16T07:15:48.109Z,96467.75
2024-03-16T07:18:15.962Z,96467.19
2024-03-16T07:20:43.842Z,96463.91
2024-03-16T07:23:11.628Z,96480.69
2024-03-16T07:25:39.435Z,96479.03
2024-03-16T07:28:09.037Z,96485.16
2024-03-16T07:30:37.209Z,96483.31
2024-03-16T07:33:05.369Z,96485.97
2024-03-16T07:35:33.276Z,96491.28
2024-03-16T07:38:01.105Z,96487.59
2024-03-16T07:40:33.059Z,96491.44
2024-03-16T07:43:02.437Z,96496.75
2024-03-16T07:45:30.410Z,96503.06
2024-03-16T07:47:58.279Z,96505.72
2024-03-16T07:50:26.074Z,96519.66
2024-03-16T07:52:53.853Z,96534.63
2024-03-16T07:55:21.770Z,96537.50
2024-03-16T07:57:50.043Z,96535.63
2024-03-16T08:00:17.933Z,96531.13
2024-03-16T08:02:46.125Z,96534.19
2024-03-16T08:05:14.078Z,96529.91
2024-03-16T08:07:42.615Z,96534.97
2024-03-16T08:10:11.298Z,96527.81
2024-03-16T08:12:39.450Z,96533.06
2024-03-16T08:15:06.998Z,96523.41
2024-03-16T08:17:34.839Z,96527.03
2024-03-16T08:20:03.637Z,96537.34
2024-03-16T08:22:31.495Z,96535.41
2024-03-16T08:24:59.410Z,96535.38
2024-03-16T08:27:32.464Z,96535.94
2024-03-16T08:30:02.646Z,96540.69
2024-03-16T08:32:30.934Z,96536.16
2024-03-16T08:34:58.743Z,96538.03
2024-03-16T08:37:26.731Z,96533.50
2024-03-16T08:39:54.712Z,96535.84
2024-03-16T08:42:22.593Z,96534.56
2024-03-16T08:44:50.413Z,96538.44
2024-03-16T08:47:18.168Z,96551.59
2024-03-16T08:49:45.937Z,96553.03
2024-03-16T08:52:14.509Z,96552.38
2024-03-16T08:54:42.435Z,96551.59
2024-03-16T08:57:10.292Z,96541.59
2024-03-16T08:59:39.481Z,96541.72
2024-03-16T09:02:07.453Z,96542.75
2024-03-16T09:04:35.666Z,96537.75
2024-03-16T09:07:03.788Z,96540.13
2024-03-16T09:09:31.760Z,96549.03
2024-03-16T09:11:59.844Z,96544.94
2024-03-16T09:14:27.636Z,96545.25
2024-03-16T09:16:55.397Z,96553.53
2024-03-16T09:19:23.334Z,96550.78
2024-03-16T09:21:51.945Z,96549.91
2024-03-16T09:24:19.750Z,96555.91
2024-03-16T09:26:47.522Z,96559.56
2024-03-16T09:29:15.278Z,96560.38
2024-03-16T09:31:43.025Z,96567.19
2024-03-16T09:34:12.068Z,96560.34
2024-03-16T09:36:39.994Z,96573.22
2024-03-16T09:39:11.561Z,96562.59
2024-03-16T09:41:40.603Z,96571.81
